WEATHER DATA

YESTERDAY
Time Temp. Dewp. Hum. Wind dir Wind speed Wind gust Bar.
00:09 1.4 0.5 94 270 0.6 1.1 1007
00:19 1.4 0.7 95 291 0.6 1.4 1006.9
00:29 1.4 0.7 95 243 0.6 1.1 1006.8
00:38 1.3 0.6 95 270 0.6 1.1 1006.7
00:49 1.3 0.6 95 180 0.6 1.4 1006.7
00:59 1.3 0.6 95 186 0.6 1.7 1006.6
01:09 1.2 0.5 95 225 0.6 1.1 1006.5
01:19 1.1 0.4 95 0.6 1.1 1006.4
01:29 1.1 0.4 95 149 0.6 1.1 1006.4
01:39 1 0.3 95 153 0.6 1.1 1006.3
01:49 1 0.4 96 209 0.6 1.1 1006.2
02:00 1 0.4 96 165 0.6 1.4 1006.3
02:10 1 0.4 96 177 0.6 1.1 1006.2
02:19 1 0.4 96 190 0.8 1.9 1006.3
02:30 1 0.4 96 183 0.8 1.9 1006.1
02:40 1 0.4 96 201 0.6 1.1 1006.1
02:50 1 0.4 96 212 0.6 1.4 1006.1
03:00 1 0.4 96 182 0.6 1.4 1006
03:10 1 0.4 96 182 0.8 1.4 1005.9
03:20 1 0.4 96 192 0.8 2.2 1005.8
03:30 1 0.4 96 177 0.8 1.9 1005.7
03:40 1.1 0.5 96 173 0.8 1.9 1005.5
03:51 1.1 0.5 96 196 0.8 1.4 1005.5
04:00 1.1 0.5 96 181 0.8 1.7 1005.4
04:10 1.1 0.5 96 187 0.8 1.7 1005.4
04:21 1.1 0.5 96 194 0.6 1.4 1005.3
04:31 1 0.4 96 251 0.6 1.4 1005.2
04:40 1 0.6 97 203 0.6 1.4 1005.1
04:51 1 0.6 97 231 0.6 1.4 1005
05:01 0.9 0.5 97 188 0.6 1.1 1005
05:11 0.8 0.5 98 270 0.6 1.1 1004.9
05:21 0.8 0.5 98 180 0.6 1.1 1004.8
05:31 0.8 0.5 98 158 0.8 1.1 1004.7
05:41 0.8 0.5 98 180 0.8 1.9 1004.7
05:51 0.8 0.7 99 174 0.6 1.4 1004.6
06:01 0.8 0.7 99 198 0.6 1.7 1004.6
06:12 0.8 0.7 99 209 0.6 1.7 1004.6
06:21 0.8 0.7 99 176 0.6 1.7 1004.4
06:31 0.8 0.7 99 188 0.6 1.4 1004.5
06:42 0.9 0.8 99 188 0.6 1.1 1004.5
06:52 0.9 0.8 99 184 0.8 1.7 1004.4
07:02 0.9 0.8 99 232 0.6 1.4 1004.4
07:11 0.9 0.8 99 198 0.8 1.9 1004.3
07:22 1 0.9 99 195 0.8 1.9 1004.4
07:32 1 0.9 99 191 0.6 1.9 1004.5
07:42 1.1 1 99 215 0.6 1.7 1004.5
07:52 1.1 1 99 206 0.6 2.2 1004.6
08:02 1.1 1 99 205 0.8 3.1 1004.6
08:12 1.2 1.1 99 255 0.6 1.4 1004.6
08:22 1.2 1.1 99 205 0.6 1.4 1004.6
08:33 1.2 1.1 99 184 0.8 1.9 1004.6
08:42 1.2 0.9 98 192 0.8 1.4 1004.6
08:52 1.2 0.9 98 188 0.8 1.4 1004.6
09:03 1.1 0.8 98 180 0.6 1.4 1004.6
09:13 1.1 0.8 98 183 0.6 1.4 1004.5
09:23 1.1 0.8 98 186 0.6 1.1 1004.5
09:32 1.1 0.8 98 182 0.6 1.4 1004.6
09:43 1.2 0.9 98 231 0.8 2.5 1004.7
09:53 1.4 1.1 98 235 0.8 1.9 1004.6
10:03 1.5 1.1 97 237 0.8 1.7 1004.6
10:13 1.6 1.2 97 250 0.8 1.7 1004.7
10:23 1.6 1 96 247 0.8 1.9 1004.7
10:33 1.7 1 95 270 0.8 1.9 1004.6
10:43 1.8 0.9 94 238 0.6 1.4 1004.5
10:54 1.8 0.9 94 235 1.1 1.9 1004.4
11:04 1.9 0.9 93 246 0.8 2.2 1004.3
11:13 1.9 0.9 93 270 0.8 1.9 1004.3
11:24 1.9 0.9 93 244 0.6 1.4 1004.2
11:34 2 1 93 235 0.8 1.7 1004.1
11:44 2.1 1.1 93 232 1.1 2.2 1004
11:53 2.2 1 92 235 1.1 2.5 1003.8
12:04 2.3 1 91 240 0.8 2.2 1003.7
12:14 2.3 1 91 250 0.8 1.7 1003.7
12:24 2.4 1.1 91 270 0.8 1.9 1003.7
12:34 2.4 0.9 90 270 0.8 1.7 1003.7
12:44 2.4 0.9 90 288 0.8 1.9 1003.5
12:54 2.5 1 90 270 0.6 1.7 1003.5
13:04 2.5 1 90 270 0.6 1.7 1003.5
13:15 2.5 0.9 89 347 0.8 2.5 1003.5
13:25 2.4 0.8 89 11 0.6 1.4 1003.5
13:34 2.4 0.8 89 329 0.6 1.4 1003.6
13:45 2.4 0.8 89 270 0.6 1.4 1003.6
13:55 2.5 1 90 228 0.6 2.2 1003.5
14:05 2.5 1 90 270 0.6 1.4 1003.5
14:15 2.5 1 90 221 0.6 1.4 1003.3
14:25 2.5 1 90 225 0.6 1.7 1003.3
14:35 2.5 0.9 89 225 0.6 1.4 1003.2
14:45 2.5 0.9 89 270 0.8 2.5 1003.1
14:55 2.4 0.6 88 325 0.6 1.7 1003.1
15:06 2.3 0.5 88 12 0.6 1.1 1003.1
15:15 2.2 0.4 88 345 0.6 1.4 1003.2
15:25 2.1 0.3 88 327 0.6 1.4 1003.2
15:36 2 0.2 88 355 0.6 1.9 1003.3
15:46 1.9 0.1 88 354 0.6 1.1 1003.5
15:55 1.8 0.2 89 341 0.6 1.1 1003.3
16:06 1.8 0.2 89 11 0.6 1.1 1003.5
16:16 1.7 0.2 90 270 0.6 1.1 1003.6
16:26 1.7 0.2 90 158 0.6 1.4 1003.6
16:36 1.7 0.2 90 315 0.6 1.4 1003.7
16:46 1.7 0.2 90 166 0.8 1.7 1003.7
16:56 1.7 0.2 90 0.8 1.4 1003.6
17:06 1.7 0.2 90 296 0.6 1.4 1003.6
17:16 1.6 0.1 90 225 0.6 1.4 1003.7
17:26 1.6 0.3 91 161 0.6 1.4 1003.7
17:36 1.6 0.3 91 194 0.6 1.4 1003.7
17:47 1.6 0.3 91 135 0.8 1.7 1003.7
17:57 1.5 0.2 91 333 0.6 1.9 1003.7
18:06 1.5 0.2 91 153 0.8 2.8 1003.7
18:17 1.5 0.2 91 296 0.6 1.9 1003.7
18:27 1.5 0.2 91 135 0.6 1.7 1003.7
18:37 1.5 0.2 91 147 0.8 2.2 1003.6
18:47 1.5 0.2 91 171 0.8 2.2 1003.6
18:57 1.4 0.1 91 173 0.6 1.4 1003.7
19:07 1.4 0.1 91 168 0.6 1.7 1003.7
19:17 1.4 0.1 91 180 0.6 1.4 1003.6
19:28 1.4 0.1 91 169 0.6 1.1 1003.6
19:37 1.3 0 91 161 0.6 1.1 1003.6
19:47 1.3 0 91 159 0.6 1.4 1003.6
19:57 1.3 0 91 171 0.8 1.7 1003.6
20:08 1.3 0 91 156 0.8 1.9 1003.7
20:18 1.3 -0.1 90 156 1.4 2.5 1003.7
20:27 1.3 -0.1 90 162 1.1 1.7 1003.7
20:38 1.3 -0.3 89 168 0.8 1.9 1003.7
20:48 1.3 -0.1 90 195 0.6 1.4 1003.8
20:58 1.3 -0.1 90 171 0.6 1.9 1003.8
21:08 1.3 -0.3 89 173 0.8 1.7 1003.8
21:18 1.3 -0.3 89 183 0.6 1.4 1003.8
21:28 1.2 -0.2 90 161 0.6 1.4 1003.8
21:38 1.2 -0.2 90 156 0.6 1.1 1003.9
21:49 1.2 -0.2 90 171 0.6 1.1 1003.8
21:59 1.1 -0.3 90 165 0.6 1.1 1003.8
22:08 1.1 -0.2 91 188 0.6 1.1 1003.8
22:18 1.1 -0.2 91 180 0.6 1.1 1003.9
22:29 1.1 -0.2 91 341 0.6 1.1 1003.9
22:39 1.1 -0.2 91 198 0.6 1.1 1003.8
22:49 1.1 -0.2 91 185 0.6 1.1 1003.8
22:59 1.1 -0.2 91 215 0.6 1.1 1003.8
23:09 1.1 0 92 180 0.6 1.4 1003.8
23:19 1.1 0 92 155 0.6 1.9 1003.8
23:29 1.1 0 92 225 0.6 1.7 1003.8
23:39 1.1 0 92 176 0.6 1.4 1003.7
23:49 1.1 0 92 176 0.6 1.4 1003.8

DAY STATISTIC

2022-12-08
TEMPERATURE
AVERAGE
1.4
HIGH
2.5
12:54
LOW
0.8
05:11
PRESSURE
AVERAGE
1004.4
HIGH
1007.0
00:09
LOW
1003.1
14:45
DEWPOINT
AVERAGE
0.5
HIGH
1.2
10:13
LOW
-0.3
20:38
HUMIDITY
AVERAGE
93
HIGH
99
05:51
LOW
88
14:55
WIND SPEED
AVERAGE
0.7
HIGH
1.4
20:18
WIND GUST
AVERAGE
1.6
HIGH
3.1
08:02
WIND DIRECTION
PREVAILING
S
45.8%
N
6.3
NE
0.0
E
0.0
SE
7.0
S
45.8
SW
21.1
W
13.4
NW
4.9
TEMPERATURE (°C)
LOW
0.8
HIGH
2.5
AVERAGE
1.4
PRESSURE (hpa)
LOW
1003.1
HIGH
1007.0
AVERAGE
1004.4
DEVICE